createdAt,value
2018-08-24T00:00:26.027Z,86.48
2018-08-24T00:01:26.023Z,86.19
2018-08-24T00:02:26.021Z,86.29
2018-08-24T00:03:26.019Z,86.73
2018-08-24T00:04:26.023Z,86.44
2018-08-24T00:05:26.017Z,87.02
2018-08-24T00:06:26.015Z,86.92
2018-08-24T00:07:25.812Z,87.5
2018-08-24T00:08:26.010Z,86.82
2018-08-24T00:09:26.015Z,87.12
2018-08-24T00:10:26.009Z,87.12
2018-08-24T00:11:25.753Z,87.6
2018-08-24T00:12:26.002Z,87.7
2018-08-24T00:13:25.999Z,87.21
2018-08-24T00:14:26.000Z,87.98
2018-08-24T00:15:25.997Z,87.94
2018-08-24T00:16:25.995Z,87.74
2018-08-24T00:17:25.998Z,88.13
2018-08-24T00:18:25.990Z,88.32
2018-08-24T00:19:25.986Z,88.04
2018-08-24T00:20:25.987Z,88.13
2018-08-24T00:21:25.984Z,88.61
2018-08-24T00:22:25.983Z,88.42
2018-08-24T00:23:25.980Z,88.23
2018-08-24T00:24:25.978Z,88.32
2018-08-24T00:25:25.975Z,88.13
2018-08-24T00:26:25.973Z,88.04
2018-08-24T00:27:25.976Z,88.42
2018-08-24T00:28:25.971Z,88.76
2018-08-24T00:29:25.973Z,88.57
2018-08-24T00:30:25.969Z,88.67
2018-08-24T00:31:25.964Z,88.67
2018-08-24T00:32:25.959Z,89.24
2018-08-24T00:33:25.962Z,89.34
2018-08-24T00:34:25.958Z,89.05
2018-08-24T00:35:25.954Z,89.05
2018-08-24T00:36:25.950Z,89.43
2018-08-24T00:37:25.948Z,89.34
2018-08-24T00:38:25.947Z,89.87
2018-08-24T00:39:25.692Z,89.49
2018-08-24T00:40:25.690Z,89.78
2018-08-24T00:41:25.941Z,90.26
2018-08-24T00:42:25.937Z,90.26
2018-08-24T00:43:25.935Z,90.16
2018-08-24T00:44:25.934Z,90.35
2018-08-24T00:45:25.929Z,90.16
2018-08-24T00:46:25.928Z,90.16
2018-08-24T00:47:25.675Z,89.97
2018-08-24T00:48:25.671Z,89.78
2018-08-24T00:49:25.925Z,89.87
2018-08-24T00:50:25.917Z,90.45
2018-08-24T00:51:25.916Z,90.73
2018-08-24T00:52:25.914Z,90.64
2018-08-24T00:53:25.920Z,90.73
2018-08-24T00:54:25.655Z,90.93
2018-08-24T00:55:25.951Z,90.55
2018-08-24T00:56:25.907Z,90.83
2018-08-24T00:57:25.901Z,90.93
2018-08-24T00:58:25.900Z,90.5
2018-08-24T00:59:25.896Z,91.31
2018-08-24T01:00:25.894Z,91.17
2018-08-24T01:01:25.639Z,91.41
2018-08-24T01:02:25.887Z,91.22
2018-08-24T01:03:25.885Z,91.13
2018-08-24T01:04:25.630Z,91.08
2018-08-24T01:05:25.885Z,91.89
2018-08-24T01:06:25.876Z,91.85
2018-08-24T01:07:25.884Z,91.56
2018-08-24T01:08:25.874Z,91.89
2018-08-24T01:09:25.617Z,91.66
2018-08-24T01:10:25.866Z,91.85
2018-08-24T01:11:25.864Z,91.8
2018-08-24T01:12:25.866Z,91.89
2018-08-24T01:13:25.862Z,91.7
2018-08-24T01:14:25.855Z,91.8
2018-08-24T01:15:25.857Z,91.8
2018-08-24T01:16:25.849Z,91.8
2018-08-24T01:17:25.847Z,91.8
2018-08-24T01:18:25.845Z,91.6
2018-08-24T01:19:25.847Z,91.03
2018-08-24T01:20:25.841Z,90.93
2018-08-24T01:21:25.844Z,90.93
2018-08-24T01:22:25.582Z,90.93
2018-08-24T01:23:25.830Z,90.93
2018-08-24T01:24:25.832Z,91.03
2018-08-24T01:25:25.829Z,91.03
2018-08-24T01:26:25.831Z,90.93
2018-08-24T01:27:25.820Z,91.13
2018-08-24T01:28:25.821Z,91.22
2018-08-24T01:29:25.815Z,91.03
2018-08-24T01:30:25.813Z,91.13
2018-08-24T01:31:25.812Z,91.22
2018-08-24T01:32:25.813Z,91.8
2018-08-24T01:33:25.804Z,91.89
2018-08-24T01:34:25.803Z,91.51
2018-08-24T01:35:25.802Z,91.31
2018-08-24T01:36:25.800Z,91.7
2018-08-24T01:37:25.795Z,91.6
2018-08-24T01:38:25.790Z,91.6
2018-08-24T01:39:25.788Z,91.6
2018-08-24T01:40:25.786Z,91.8
2018-08-24T01:41:25.783Z,91.6
2018-08-24T01:42:26.033Z,91.41
2018-08-24T01:43:25.777Z,91.6
2018-08-24T01:44:25.524Z,91.89
2018-08-24T01:45:25.522Z,91.51
2018-08-24T01:46:25.775Z,91.8
2018-08-24T01:47:25.767Z,91.99
2018-08-24T01:48:25.768Z,91.99
2018-08-24T01:49:25.513Z,91.99
2018-08-24T01:50:25.759Z,91.89
2018-08-24T01:51:25.757Z,91.51
2018-08-24T01:52:25.757Z,91.51
2018-08-24T01:53:25.500Z,91.99
2018-08-24T01:54:25.750Z,91.8
2018-08-24T01:55:25.744Z,91.8
2018-08-24T01:56:25.741Z,91.8
2018-08-24T01:57:25.743Z,91.7
2018-08-24T01:58:25.742Z,91.6
2018-08-24T01:59:25.486Z,91.6
2018-08-24T02:00:25.731Z,91.51
2018-08-24T02:01:25.729Z,91.99
2018-08-24T02:02:25.727Z,91.99
2018-08-24T02:03:25.725Z,91.75
2018-08-24T02:04:25.720Z,92.08
2018-08-24T02:05:25.718Z,92.04
2018-08-24T02:06:25.728Z,92.08
2018-08-24T02:07:25.713Z,91.56
2018-08-24T02:08:25.458Z,92.38
2018-08-24T02:09:25.710Z,92.52
2018-08-24T02:10:25.704Z,92.52
2018-08-24T02:11:25.450Z,92.33
2018-08-24T02:12:25.699Z,92.23
2018-08-24T02:13:25.945Z,91.85
2018-08-24T02:14:25.775Z,92.33
2018-08-24T02:15:25.694Z,92.23
2018-08-24T02:16:25.689Z,92.13
2018-08-24T02:17:25.688Z,92.13
2018-08-24T02:18:25.688Z,92.33
2018-08-24T02:19:25.679Z,92.13
2018-08-24T02:20:25.677Z,92.33
2018-08-24T02:21:25.674Z,92.33
2018-08-24T02:22:25.670Z,92.71
2018-08-24T02:23:25.669Z,92.23
2018-08-24T02:24:25.666Z,92.23
2018-08-24T02:25:25.668Z,92.23
2018-08-24T02:26:25.663Z,92.23
2018-08-24T02:27:25.656Z,92.04
2018-08-24T02:28:25.653Z,92.52
2018-08-24T02:29:25.398Z,92.52
2018-08-24T02:30:25.654Z,92.52
2018-08-24T02:31:25.653Z,92.04
2018-08-24T02:32:25.646Z,92.23
2018-08-24T02:33:25.645Z,92.61
2018-08-24T02:34:25.637Z,92.71
2018-08-24T02:35:25.638Z,92.71
2018-08-24T02:36:25.630Z,92.43
2018-08-24T02:37:25.627Z,92.43
2018-08-24T02:38:25.625Z,92.76
2018-08-24T02:39:25.624Z,92.23
2018-08-24T02:40:25.623Z,92.67
2018-08-24T02:41:25.615Z,93.05
2018-08-24T02:42:25.617Z,93.15
2018-08-24T02:43:25.610Z,93.05
2018-08-24T02:44:25.616Z,93.24
2018-08-24T02:45:25.353Z,93.05
2018-08-24T02:46:25.611Z,92.76
2018-08-24T02:47:25.598Z,92.86
2018-08-24T02:48:25.595Z,92.57
2018-08-24T02:49:25.593Z,92.76
2018-08-24T02:50:25.590Z,92.96
2018-08-24T02:51:25.587Z,92.86
2018-08-24T02:52:25.582Z,93.05
2018-08-24T02:53:25.580Z,93.05
2018-08-24T02:54:25.598Z,92.96
2018-08-24T02:55:25.573Z,93.15
2018-08-24T02:56:25.569Z,93.24
2018-08-24T02:57:25.573Z,93.53
2018-08-24T02:58:25.312Z,93.44
2018-08-24T02:59:25.569Z,93.44
2018-08-24T03:00:25.562Z,93.44
2018-08-24T03:01:25.557Z,93.34
2018-08-24T03:02:25.552Z,93.15
2018-08-24T03:03:25.552Z,93.15
2018-08-24T03:04:25.297Z,93.53
2018-08-24T03:05:25.831Z,93.53
2018-08-24T03:06:25.541Z,93.24
2018-08-24T03:07:25.542Z,93.24
2018-08-24T03:08:25.781Z,93.44
2018-08-24T03:09:25.534Z,93.39
2018-08-24T03:10:25.275Z,93.34
2018-08-24T03:11:25.524Z,93.24
2018-08-24T03:12:25.520Z,93.34
2018-08-24T03:13:25.520Z,93.19
2018-08-24T03:14:25.293Z,93.44
2018-08-24T03:15:25.512Z,93.44
2018-08-24T03:16:25.762Z,93.29
2018-08-24T03:17:25.507Z,93.34
2018-08-24T03:18:25.502Z,93.29
2018-08-24T03:19:25.503Z,93.68
2018-08-24T03:20:25.501Z,93.44
2018-08-24T03:21:25.495Z,93.19
2018-08-24T03:22:25.236Z,93.77
2018-08-24T03:23:25.493Z,93.63
2018-08-24T03:24:25.489Z,93.39
2018-08-24T03:25:25.479Z,93.39
2018-08-24T03:26:25.224Z,93.19
2018-08-24T03:27:25.472Z,93.29
2018-08-24T03:28:25.218Z,93.63
2018-08-24T03:29:25.466Z,93.49
2018-08-24T03:30:25.475Z,93.39
2018-08-24T03:31:25.207Z,93.34
2018-08-24T03:32:25.464Z,93.39
2018-08-24T03:33:25.201Z,93.39
2018-08-24T03:34:25.469Z,93.68
2018-08-24T03:35:25.194Z,93.58
2018-08-24T03:36:25.448Z,93.58
2018-08-24T03:37:25.452Z,93.49
2018-08-24T03:38:25.438Z,93.29
2018-08-24T03:39:25.434Z,93.39
2018-08-24T03:40:25.429Z,93.19
2018-08-24T03:41:25.433Z,93.29
2018-08-24T03:42:25.427Z,93.29
2018-08-24T03:43:25.420Z,93.01
2018-08-24T03:44:25.416Z,93.1
2018-08-24T03:45:25.418Z,93.19
2018-08-24T03:46:25.411Z,93.96
2018-08-24T03:47:25.408Z,93.58
2018-08-24T03:48:25.409Z,93.77
2018-08-24T03:49:25.402Z,93.77
2018-08-24T03:50:25.147Z,93.96
2018-08-24T03:51:25.395Z,93.96
2018-08-24T03:52:25.395Z,93.96
2018-08-24T03:53:25.649Z,93.96
2018-08-24T03:54:25.389Z,94.06
2018-08-24T03:55:25.380Z,93.58
2018-08-24T03:56:25.379Z,93.96
2018-08-24T03:57:25.373Z,93.68
2018-08-24T03:58:25.377Z,93.68
2018-08-24T03:59:25.367Z,93.49
2018-08-24T04:00:25.363Z,93.01
2018-08-24T04:01:25.109Z,93.49
2018-08-24T04:02:25.106Z,93.49
2018-08-24T04:03:25.364Z,93.01
2018-08-24T04:04:25.352Z,93.1
2018-08-24T04:05:25.347Z,93.1
2018-08-24T04:06:25.346Z,93.58
2018-08-24T04:07:25.100Z,93.58
2018-08-24T04:08:25.339Z,93.34
2018-08-24T04:09:25.397Z,94.01
2018-08-24T04:10:25.079Z,93.68
2018-08-24T04:11:25.326Z,93.53
2018-08-24T04:12:25.322Z,93.77
2018-08-24T04:13:25.321Z,93.87
2018-08-24T04:14:25.316Z,93.82
2018-08-24T04:15:25.313Z,93.15
2018-08-24T04:16:25.059Z,93.68
2018-08-24T04:17:25.057Z,93.77
2018-08-24T04:18:25.305Z,93.44
2018-08-24T04:19:25.431Z,93.1
2018-08-24T04:20:25.297Z,93.44
2018-08-24T04:21:25.295Z,93.68
2018-08-24T04:22:25.293Z,93.34
2018-08-24T04:23:25.290Z,93.34
2018-08-24T04:24:25.285Z,93.34
2018-08-24T04:25:25.282Z,93.63
2018-08-24T04:26:25.026Z,93.53
2018-08-24T04:27:25.275Z,93.53
2018-08-24T04:28:25.272Z,93.53
2018-08-24T04:29:25.314Z,93.73
2018-08-24T04:30:25.266Z,93.34
2018-08-24T04:31:25.262Z,93.53
2018-08-24T04:32:25.260Z,93.44
2018-08-24T04:33:25.004Z,93.44
2018-08-24T04:34:25.260Z,92.86
2018-08-24T04:35:25.250Z,93.05
2018-08-24T04:36:25.249Z,93.15
2018-08-24T04:37:25.243Z,92.81
2018-08-24T04:38:25.245Z,92.81
2018-08-24T04:39:25.239Z,93.19
2018-08-24T04:40:25.016Z,92.91
2018-08-24T04:41:25.236Z,92.43
2018-08-24T04:42:25.229Z,92.81
2018-08-24T04:43:25.230Z,92.61
2018-08-24T04:44:25.248Z,93
2018-08-24T04:45:25.318Z,92.76
2018-08-24T04:46:25.218Z,92.95
2018-08-24T04:47:25.221Z,92.57
2018-08-24T04:48:25.212Z,92.47
2018-08-24T04:49:25.458Z,92.32
2018-08-24T04:50:25.208Z,91.84
2018-08-24T04:51:25.355Z,91.65
2018-08-24T04:52:25.200Z,91.5
2018-08-24T04:53:25.199Z,90.92
2018-08-24T04:54:25.198Z,90.92
2018-08-24T04:55:25.197Z,90.73
2018-08-24T04:56:25.191Z,90.48
2018-08-24T04:57:25.194Z,90.1
2018-08-24T04:58:25.495Z,89.72
2018-08-24T04:59:25.193Z,89.72
2018-08-24T05:00:25.195Z,89.28
2018-08-24T05:01:25.182Z,88.99
2018-08-24T05:02:25.186Z,88.41
2018-08-24T05:03:25.178Z,88.41
2018-08-24T05:04:25.219Z,88.51
2018-08-24T05:05:25.176Z,88.02
2018-08-24T05:06:25.173Z,88.02
2018-08-24T05:07:25.176Z,88.02
2018-08-24T05:08:25.217Z,87.78
2018-08-24T05:09:25.241Z,87.78
2018-08-24T05:10:25.167Z,88.17
2018-08-24T05:11:25.167Z,87.68
2018-08-24T05:12:25.165Z,86.82
2018-08-24T05:13:25.164Z,86.82
2018-08-24T05:14:25.161Z,87.34
2018-08-24T05:15:25.160Z,86.76
2018-08-24T05:16:25.170Z,86.96
2018-08-24T05:17:25.162Z,86.57
2018-08-24T05:18:24.904Z,86.24
2018-08-24T05:19:25.159Z,85.75
2018-08-24T05:20:25.405Z,86.04
2018-08-24T05:21:25.364Z,86.38
2018-08-24T05:22:25.153Z,86.72
2018-08-24T05:23:25.154Z,85.99
2018-08-24T05:24:25.162Z,85.94
2018-08-24T05:25:25.148Z,86.04
2018-08-24T05:26:25.147Z,86.96
2018-08-24T05:27:25.151Z,85.75
2018-08-24T05:28:25.149Z,85.94
2018-08-24T05:29:25.141Z,85.94
2018-08-24T05:30:25.142Z,86.18
2018-08-24T05:31:25.144Z,86.08
2018-08-24T05:32:25.141Z,85.7
2018-08-24T05:33:25.137Z,85.89
2018-08-24T05:34:24.896Z,85.8
2018-08-24T05:35:25.137Z,84.68
2018-08-24T05:36:25.140Z,84.68
2018-08-24T05:37:25.143Z,84.68
2018-08-24T05:38:25.141Z,84.39
2018-08-24T05:39:25.142Z,83.75
2018-08-24T05:40:25.132Z,83.47
2018-08-24T05:41:25.334Z,83.56
2018-08-24T05:42:25.131Z,83.41
2018-08-24T05:43:25.129Z,82.25
2018-08-24T05:44:25.204Z,82.54
2018-08-24T05:45:25.138Z,82.64
2018-08-24T05:46:25.130Z,82.06
2018-08-24T05:47:25.132Z,81.96
2018-08-24T05:48:25.133Z,82.06
2018-08-24T05:49:25.137Z,81.87
2018-08-24T05:50:25.138Z,81.77
2018-08-24T05:51:25.131Z,81.81
2018-08-24T05:52:25.135Z,81.23
2018-08-24T05:53:25.133Z,81.13
2018-08-24T05:54:25.133Z,81.42
2018-08-24T05:55:25.133Z,80.74
2018-08-24T05:56:25.135Z,80.36
2018-08-24T05:57:25.179Z,80.55
2018-08-24T05:58:25.135Z,80.16
2018-08-24T05:59:25.136Z,79.97
2018-08-24T06:00:25.132Z,80.26
2018-08-24T06:01:25.154Z,80.49
2018-08-24T06:02:25.131Z,79.62
2018-08-24T06:03:25.137Z,79.43
2018-08-24T06:04:25.136Z,78.85
2018-08-24T06:05:25.133Z,78.36
2018-08-24T06:06:25.139Z,78.79
2018-08-24T06:07:25.142Z,79.08
2018-08-24T06:08:25.133Z,78.69
2018-08-24T06:09:25.135Z,78.11
2018-08-24T06:10:25.145Z,78.69
2018-08-24T06:11:25.143Z,78.75
2018-08-24T06:12:25.137Z,78.66
2018-08-24T06:13:25.142Z,79.04
2018-08-24T06:14:25.144Z,78.79
2018-08-24T06:15:25.140Z,79.14
2018-08-24T06:16:25.140Z,79.24
2018-08-24T06:17:25.145Z,78.75
2018-08-24T06:18:25.146Z,78.5
2018-08-24T06:19:25.146Z,78.56
2018-08-24T06:20:25.147Z,78.5
2018-08-24T06:21:25.155Z,78.56
2018-08-24T06:22:25.147Z,78.36
2018-08-24T06:23:25.148Z,78.56
2018-08-24T06:24:25.196Z,78.85
2018-08-24T06:25:25.150Z,78.85
2018-08-24T06:26:25.153Z,78.66
2018-08-24T06:27:25.151Z,78.75
2018-08-24T06:28:25.149Z,78.75
2018-08-24T06:29:25.146Z,78.85
2018-08-24T06:30:25.144Z,79.04
2018-08-24T06:31:25.151Z,79.62
2018-08-24T06:32:25.155Z,79.39
2018-08-24T06:33:25.153Z,79.43
2018-08-24T06:34:24.894Z,79.68
2018-08-24T06:35:25.146Z,79.58
2018-08-24T06:36:25.144Z,79.68
2018-08-24T06:37:25.145Z,79.78
2018-08-24T06:38:25.283Z,80.07
2018-08-24T06:39:25.172Z,80.55
2018-08-24T06:40:25.144Z,80.07
2018-08-24T06:41:25.143Z,80.55
2018-08-24T06:42:25.152Z,80.36
2018-08-24T06:43:25.143Z,80.74
2018-08-24T06:44:25.142Z,80.46
2018-08-24T06:45:25.143Z,81.04
2018-08-24T06:46:25.142Z,81.04
2018-08-24T06:47:25.613Z,81.09
2018-08-24T06:48:25.142Z,81.87
2018-08-24T06:49:25.139Z,82.83
2018-08-24T06:50:25.142Z,83.31
2018-08-24T06:51:25.142Z,83.89
2018-08-24T06:52:24.887Z,82.83
2018-08-24T06:53:25.526Z,83.12
2018-08-24T06:54:25.138Z,82.54
2018-08-24T06:55:25.141Z,82.25
2018-08-24T06:56:25.136Z,82.35
2018-08-24T06:57:25.137Z,82.35
2018-08-24T06:58:25.164Z,82.35
2018-08-24T06:59:25.135Z,82.54
2018-08-24T07:00:25.132Z,82.25
2018-08-24T07:01:25.134Z,82.64
2018-08-24T07:02:25.133Z,82.54
2018-08-24T07:03:24.880Z,82.54
2018-08-24T07:04:25.132Z,82.54
2018-08-24T07:05:25.130Z,81.87
2018-08-24T07:06:25.133Z,81.48
2018-08-24T07:07:25.129Z,82
2018-08-24T07:08:25.129Z,81.32
2018-08-24T07:09:25.129Z,81.13
2018-08-24T07:10:25.139Z,81.04
2018-08-24T07:11:25.128Z,80.84
2018-08-24T07:12:24.898Z,80.55
2018-08-24T07:13:24.875Z,80.36
2018-08-24T07:14:25.129Z,80.46
2018-08-24T07:15:25.126Z,79.87
2018-08-24T07:16:25.127Z,79.87
2018-08-24T07:17:25.128Z,80.16
2018-08-24T07:18:25.128Z,80.46
2018-08-24T07:19:25.154Z,79.78
2018-08-24T07:20:25.126Z,80.16
2018-08-24T07:21:25.126Z,79.58
2018-08-24T07:22:25.127Z,79.78
2018-08-24T07:23:25.124Z,79.78
2018-08-24T07:24:25.150Z,79.78
2018-08-24T07:25:25.129Z,79.78
2018-08-24T07:26:25.122Z,78.71
2018-08-24T07:27:25.124Z,78.56
2018-08-24T07:28:25.129Z,78.71
2018-08-24T07:29:25.123Z,78.08
2018-08-24T07:30:25.122Z,77.98
2018-08-24T07:31:25.130Z,77.98
2018-08-24T07:32:25.122Z,78.36
2018-08-24T07:33:25.124Z,78.17
2018-08-24T07:34:25.200Z,78.27
2018-08-24T07:35:25.127Z,78.36
2018-08-24T07:36:25.124Z,77.11
2018-08-24T07:37:25.123Z,76.62
2018-08-24T07:38:25.123Z,76.53
2018-08-24T07:39:25.126Z,76.91
2018-08-24T07:40:25.127Z,76.72
2018-08-24T07:41:25.351Z,76.76
2018-08-24T07:42:25.124Z,77.01
2018-08-24T07:43:25.123Z,76.86
2018-08-24T07:44:25.123Z,77.2
2018-08-24T07:45:25.127Z,76.91
2018-08-24T07:46:25.125Z,76.91
2018-08-24T07:47:25.126Z,76.72
2018-08-24T07:48:25.125Z,77.11
2018-08-24T07:49:24.872Z,76.91
2018-08-24T07:50:25.125Z,77.11
2018-08-24T07:51:25.130Z,77.2
2018-08-24T07:52:25.135Z,76.91
2018-08-24T07:53:25.126Z,77.01
2018-08-24T07:54:25.125Z,76.24
2018-08-24T07:55:25.133Z,75.75
2018-08-24T07:56:25.375Z,75.46
2018-08-24T07:57:25.127Z,75.89
2018-08-24T07:58:25.125Z,76.08
2018-08-24T07:59:24.873Z,75.4
2018-08-24T08:00:25.124Z,75.4
2018-08-24T08:01:25.125Z,75.63
2018-08-24T08:02:25.127Z,74.38
2018-08-24T08:03:25.125Z,73.5
2018-08-24T08:04:25.127Z,73.6
2018-08-24T08:05:25.227Z,73.41
2018-08-24T08:06:25.126Z,72.92
2018-08-24T08:07:25.127Z,72.47
2018-08-24T08:08:25.127Z,73.05
2018-08-24T08:09:25.127Z,72.77
2018-08-24T08:10:25.128Z,72.18
2018-08-24T08:11:25.130Z,71.64
2018-08-24T08:12:25.186Z,71.25
2018-08-24T08:13:25.134Z,70.57
2018-08-24T08:14:24.880Z,70.57
2018-08-24T08:15:25.134Z,69.79
2018-08-24T08:16:25.138Z,69.06
2018-08-24T08:17:24.885Z,69.06
2018-08-24T08:18:25.323Z,68.76
2018-08-24T08:19:25.139Z,68.76
2018-08-24T08:20:25.140Z,68.57
2018-08-24T08:21:25.145Z,68.76
2018-08-24T08:22:25.143Z,68.57
2018-08-24T08:23:25.150Z,68.66
2018-08-24T08:24:25.147Z,68.37
2018-08-24T08:25:25.148Z,68.41
2018-08-24T08:26:24.899Z,67.83
2018-08-24T08:27:25.401Z,67.44
2018-08-24T08:28:25.152Z,67.24
2018-08-24T08:29:24.903Z,67.54
2018-08-24T08:30:25.159Z,67.73
2018-08-24T08:31:24.906Z,67.63
2018-08-24T08:32:25.158Z,67.63
2018-08-24T08:33:24.909Z,67.73
2018-08-24T08:34:25.197Z,67.92
2018-08-24T08:35:25.164Z,67.83
2018-08-24T08:36:25.167Z,67.63
2018-08-24T08:37:25.175Z,67.14
2018-08-24T08:38:25.174Z,67.47
2018-08-24T08:39:25.174Z,66.21
2018-08-24T08:40:25.175Z,65.14
2018-08-24T08:41:24.931Z,65.27
2018-08-24T08:42:25.189Z,65.37
2018-08-24T08:43:25.186Z,65.47
2018-08-24T08:44:24.934Z,67.24
2018-08-24T08:45:25.398Z,67.63
2018-08-24T08:46:25.193Z,67.63
2018-08-24T08:47:24.943Z,67.73
2018-08-24T08:48:25.203Z,67.38
2018-08-24T08:49:25.203Z,66.89
2018-08-24T08:50:25.205Z,66.6
2018-08-24T08:51:25.208Z,66.63
2018-08-24T08:52:25.217Z,66.83
2018-08-24T08:53:25.368Z,67.02
2018-08-24T08:54:25.225Z,67.5
2018-08-24T08:55:25.224Z,68.77
2018-08-24T08:56:25.228Z,67.5
2018-08-24T08:57:25.231Z,66.93
2018-08-24T08:58:25.238Z,66.66
2018-08-24T08:59:24.993Z,67.63
2018-08-24T09:00:24.991Z,67.35
2018-08-24T09:01:25.247Z,67.35
2018-08-24T09:02:25.259Z,65.98
2018-08-24T09:03:25.258Z,65.23
2018-08-24T09:04:25.263Z,65.53
2018-08-24T09:05:25.270Z,63.97
2018-08-24T09:06:25.413Z,62.99
2018-08-24T09:07:25.021Z,62.99
2018-08-24T09:08:25.290Z,63.39
2018-08-24T09:09:25.284Z,62.9
2018-08-24T09:10:25.036Z,61.57
2018-08-24T09:11:25.291Z,61.57
2018-08-24T09:12:25.306Z,60.98
2018-08-24T09:13:25.303Z,60.2
2018-08-24T09:14:25.057Z,60.1
2018-08-24T09:15:25.312Z,60.2
2018-08-24T09:16:25.317Z,59.69
2018-08-24T09:17:25.320Z,59.88
2018-08-24T09:18:25.361Z,60.27
2018-08-24T09:19:25.330Z,60.75
2018-08-24T09:20:25.336Z,61.11
2018-08-24T09:21:25.339Z,61.15
2018-08-24T09:22:25.353Z,61.15
2018-08-24T09:23:25.348Z,61.34
2018-08-24T09:24:25.102Z,61.44
2018-08-24T09:25:25.121Z,61.8
2018-08-24T09:27:25.367Z,61.73
2018-08-24T09:28:25.380Z,60.75
2018-08-24T09:29:25.125Z,60.46
2018-08-24T09:30:25.386Z,59.72
2018-08-24T09:31:25.135Z,58.74
2018-08-24T09:32:25.538Z,59.33
2018-08-24T09:33:25.399Z,58.64
2018-08-24T09:34:25.402Z,58.58
2018-08-24T09:35:25.411Z,57.6
2018-08-24T09:36:25.418Z,57.11
2018-08-24T09:37:25.420Z,57.21
2018-08-24T09:38:25.171Z,56.82
2018-08-24T09:39:25.429Z,57.21
2018-08-24T09:40:25.432Z,57.5
2018-08-24T09:41:25.185Z,57.31
2018-08-24T09:42:25.441Z,56.82
2018-08-24T09:43:25.453Z,56.72
2018-08-24T09:44:25.452Z,56.82
2018-08-24T09:45:25.458Z,56.6
2018-08-24T09:46:25.464Z,56.99
2018-08-24T09:47:25.467Z,57.21
2018-08-24T09:48:25.472Z,56.7
2018-08-24T09:49:25.478Z,56.92
2018-08-24T09:50:25.487Z,56.43
2018-08-24T09:51:25.496Z,56.33
2018-08-24T09:52:25.497Z,56.04
2018-08-24T09:53:25.247Z,56.52
2018-08-24T09:54:25.504Z,56.52
2018-08-24T09:55:25.256Z,56.72
2018-08-24T09:56:25.514Z,56.43
2018-08-24T09:57:31.781Z,56.33
2018-08-24T09:58:25.522Z,56.33
2018-08-24T09:59:25.277Z,56.14
2018-08-24T10:00:25.534Z,56.46
2018-08-24T10:01:25.540Z,56.14
2018-08-24T10:02:25.546Z,56.16
2018-08-24T10:03:25.550Z,55.97
2018-08-24T10:05:25.308Z,55.12
2018-08-24T10:06:25.822Z,54.34
2018-08-24T10:07:25.569Z,53.95
2018-08-24T10:08:25.323Z,54.02
2018-08-24T10:09:25.329Z,53.92
2018-08-24T10:10:25.584Z,54.11
2018-08-24T10:11:27.014Z,54.24
2018-08-24T10:12:25.346Z,54.34
2018-08-24T10:13:25.845Z,53.85
2018-08-24T10:14:25.606Z,54.14
2018-08-24T10:15:25.615Z,54.05
2018-08-24T10:16:25.618Z,53.27
2018-08-24T10:17:25.626Z,53.17
2018-08-24T10:18:25.374Z,53.56
2018-08-24T10:19:25.636Z,52.97
2018-08-24T10:20:25.385Z,53.36
2018-08-24T10:21:25.642Z,54.14
2018-08-24T10:22:25.649Z,54.34
2018-08-24T10:23:25.651Z,53.36
2018-08-24T10:24:25.411Z,53.27
2018-08-24T10:25:25.663Z,52.97
2018-08-24T10:26:25.423Z,52.68
2018-08-24T10:27:25.675Z,52.97
2018-08-24T10:28:25.676Z,52.87
2018-08-24T10:29:26.075Z,53.24
2018-08-24T10:30:25.435Z,53.14
2018-08-24T10:31:25.701Z,53.14
2018-08-24T10:32:25.695Z,53.34
2018-08-24T10:33:25.700Z,53.05
2018-08-24T10:34:25.719Z,53.05
2018-08-24T10:35:25.710Z,53.05
2018-08-24T10:36:25.716Z,52.95
2018-08-24T10:37:25.720Z,52.75
2018-08-24T10:38:25.725Z,52.36
2018-08-24T10:39:25.732Z,52.29
2018-08-24T10:40:25.733Z,52
2018-08-24T10:41:25.739Z,51.41
2018-08-24T10:42:25.494Z,51.21
2018-08-24T10:43:25.749Z,51.41
2018-08-24T10:44:25.760Z,51.34
2018-08-24T10:45:25.766Z,51.43
2018-08-24T10:46:25.512Z,51.53
2018-08-24T10:47:25.612Z,51.04
2018-08-24T10:48:25.773Z,50.85
2018-08-24T10:49:25.977Z,50.78
2018-08-24T10:50:25.580Z,50.65
2018-08-24T10:51:25.797Z,50.59
2018-08-24T10:52:25.543Z,50.59
2018-08-24T10:53:25.800Z,50.2
2018-08-24T10:54:25.581Z,50.2
2018-08-24T10:55:25.865Z,49.41
2018-08-24T10:56:25.816Z,49.71
2018-08-24T10:57:25.867Z,49.41
2018-08-24T10:58:25.575Z,50.16
2018-08-24T10:59:25.832Z,50.07
2018-08-24T11:00:25.842Z,50.07
2018-08-24T11:01:25.851Z,50.56
2018-08-24T11:02:25.847Z,50.43
2018-08-24T11:03:26.120Z,50.92
2018-08-24T11:04:25.605Z,51.39
2018-08-24T11:05:26.063Z,51.65
2018-08-24T11:06:25.871Z,52.63
2018-08-24T11:07:25.740Z,53.09
2018-08-24T11:08:25.887Z,54.13
2018-08-24T11:09:25.882Z,54.69
2018-08-24T11:10:25.887Z,55.66
2018-08-24T11:11:25.639Z,56.81
2018-08-24T11:12:25.642Z,58.23
2018-08-24T11:13:25.899Z,62
2018-08-24T11:14:25.904Z,70.16
2018-08-24T11:15:25.654Z,76.44
2018-08-24T11:16:25.909Z,80.77
2018-08-24T11:17:25.661Z,81.31
2018-08-24T11:18:25.917Z,83.5
2018-08-24T11:19:25.918Z,83.56
2018-08-24T11:20:25.922Z,83.85
2018-08-24T11:21:25.678Z,83.81
2018-08-24T11:22:25.675Z,82.88
2018-08-24T11:23:25.934Z,82.07
2018-08-24T11:24:25.931Z,82.01
2018-08-24T11:25:25.938Z,81.33
2018-08-24T11:26:25.940Z,80.36
2018-08-24T11:27:25.685Z,78.94
2018-08-24T11:28:25.943Z,78.66
2018-08-24T11:29:26.158Z,78.36
2018-08-24T11:30:25.946Z,77.53
2018-08-24T11:31:25.947Z,75.2
2018-08-24T11:32:25.700Z,72.77
2018-08-24T11:33:25.953Z,68.99
2018-08-24T11:34:26.755Z,67.73
2018-08-24T11:35:25.958Z,66.47
2018-08-24T11:36:26.090Z,65.79
2018-08-24T11:37:25.970Z,65.4
2018-08-24T11:38:25.971Z,64.33
2018-08-24T11:39:25.968Z,63.85
2018-08-24T11:40:25.973Z,63.75
2018-08-24T11:41:25.997Z,63.17
2018-08-24T11:42:25.977Z,62.91
2018-08-24T11:43:25.983Z,61.84
2018-08-24T11:44:25.988Z,61.35
2018-08-24T11:45:25.987Z,59.61
2018-08-24T11:46:25.988Z,60.28
2018-08-24T11:47:25.991Z,59.61
2018-08-24T11:48:25.746Z,58.83
2018-08-24T11:49:25.996Z,58.64
2018-08-24T11:50:26.001Z,58.54
2018-08-24T11:51:25.754Z,58.15
2018-08-24T11:52:26.005Z,57.73
2018-08-24T11:53:26.008Z,58.41
2018-08-24T11:54:26.168Z,58.51
2018-08-24T11:55:26.017Z,57.64
2018-08-24T11:56:25.764Z,57.86
2018-08-24T11:57:25.768Z,56.89
2018-08-24T11:58:26.023Z,56.21
2018-08-24T11:59:26.026Z,55.92
2018-08-24T12:00:26.034Z,56.3
2018-08-24T12:01:26.032Z,55.92
2018-08-24T12:02:25.783Z,55.24
2018-08-24T12:03:26.037Z,54.75
2018-08-24T12:04:25.816Z,54.07
2018-08-24T12:05:26.294Z,54.27
2018-08-24T12:06:26.049Z,54.63
2018-08-24T12:07:26.049Z,54.82
2018-08-24T12:08:26.264Z,55.02
2018-08-24T12:09:26.105Z,54.82
2018-08-24T12:10:26.080Z,55.5
2018-08-24T12:11:25.808Z,55.02
2018-08-24T12:12:26.170Z,53.95
2018-08-24T12:13:26.071Z,54.05
2018-08-24T12:14:25.816Z,53.85
2018-08-24T12:15:25.821Z,54.8
2018-08-24T12:16:25.820Z,55.54
2018-08-24T12:17:26.074Z,55.74
2018-08-24T12:18:25.893Z,56.13
2018-08-24T12:19:25.828Z,55.16
2018-08-24T12:20:26.082Z,55.16
2018-08-24T12:21:26.337Z,55.93
2018-08-24T12:22:26.089Z,56.61
2018-08-24T12:23:26.090Z,56.41
2018-08-24T12:24:26.309Z,56.23
2018-08-24T12:25:26.092Z,56.41
2018-08-24T12:26:26.098Z,55.93
2018-08-24T12:27:25.843Z,56.32
2018-08-24T12:28:26.096Z,56.49
2018-08-24T12:29:26.097Z,56.71
2018-08-24T12:30:26.101Z,56.59
2018-08-24T12:31:26.101Z,55.93
2018-08-24T12:32:26.103Z,55.44
2018-08-24T12:33:26.112Z,54.77
2018-08-24T12:34:26.106Z,53.99
2018-08-24T12:35:26.114Z,54.19
2018-08-24T12:36:26.147Z,54.09
2018-08-24T12:37:25.861Z,52.83
2018-08-24T12:38:26.116Z,52.93
2018-08-24T12:39:25.862Z,52.25
2018-08-24T12:40:26.116Z,52.54
2018-08-24T12:41:26.226Z,51.86
2018-08-24T12:42:26.123Z,50.5
2018-08-24T12:43:26.183Z,49.82
2018-08-24T12:44:26.122Z,49.63
2018-08-24T12:45:25.872Z,49.82
2018-08-24T12:46:26.126Z,49.82
2018-08-24T12:47:26.125Z,48.95
2018-08-24T12:48:26.129Z,48.95
2018-08-24T12:49:25.959Z,49.05
2018-08-24T12:50:25.879Z,48.85
2018-08-24T12:51:25.881Z,48.76
2018-08-24T12:52:26.134Z,48.66
2018-08-24T12:53:26.136Z,48.37
2018-08-24T12:54:25.886Z,48.66
2018-08-24T12:55:26.150Z,48.95
2018-08-24T12:56:26.146Z,47.89
2018-08-24T12:57:26.145Z,47.89